sensor_id;sensor_type;location;lat;lon;timestamp;P1;durP1;ratioP1;P2;durP2;ratioP2
41635;SDS011;27623;51.966;4.602;2024-02-21T00:02:06;9.52;;;1.13;;
41635;SDS011;27623;51.966;4.602;2024-02-21T00:04:31;2.85;;;0.73;;
41635;SDS011;27623;51.966;4.602;2024-02-21T00:07:00;0.45;;;0.30;;
41635;SDS011;27623;51.966;4.602;2024-02-21T00:09:25;2.05;;;1.10;;
41635;SDS011;27623;51.966;4.602;2024-02-21T00:11:50;9.38;;;1.38;;
41635;SDS011;27623;51.966;4.602;2024-02-21T00:14:16;1.33;;;0.77;;
41635;SDS011;27623;51.966;4.602;2024-02-21T00:16:44;2.25;;;1.02;;
41635;SDS011;27623;51.966;4.602;2024-02-21T00:19:09;4.80;;;1.80;;
41635;SDS011;27623;51.966;4.602;2024-02-21T00:21:34;5.20;;;1.35;;
41635;SDS011;27623;51.966;4.602;2024-02-21T00:24:00;2.78;;;0.75;;
41635;SDS011;27623;51.966;4.602;2024-02-21T00:26:25;8.85;;;1.60;;
41635;SDS011;27623;51.966;4.602;2024-02-21T00:28:50;10.45;;;1.27;;
41635;SDS011;27623;51.966;4.602;2024-02-21T00:31:16;1.10;;;0.68;;
41635;SDS011;27623;51.966;4.602;2024-02-21T00:33:41;5.40;;;1.45;;
41635;SDS011;27623;51.966;4.602;2024-02-21T00:36:07;1.00;;;0.43;;
41635;SDS011;27623;51.966;4.602;2024-02-21T00:38:32;6.25;;;1.48;;
41635;SDS011;27623;51.966;4.602;2024-02-21T00:40:58;5.07;;;1.85;;
41635;SDS011;27623;51.966;4.602;2024-02-21T00:43:23;1.35;;;1.13;;
41635;SDS011;27623;51.966;4.602;2024-02-21T00:45:49;7.15;;;2.15;;
41635;SDS011;27623;51.966;4.602;2024-02-21T00:48:15;3.15;;;1.48;;
41635;SDS011;27623;51.966;4.602;2024-02-21T00:50:40;1.55;;;1.25;;
41635;SDS011;27623;51.966;4.602;2024-02-21T00:53:06;0.63;;;0.43;;
41635;SDS011;27623;51.966;4.602;2024-02-21T00:55:31;7.07;;;0.77;;
41635;SDS011;27623;51.966;4.602;2024-02-21T00:57:59;3.00;;;1.20;;
41635;SDS011;27623;51.966;4.602;2024-02-21T01:00:25;7.35;;;1.55;;
41635;SDS011;27623;51.966;4.602;2024-02-21T01:02:50;2.67;;;1.10;;
41635;SDS011;27623;51.966;4.602;2024-02-21T01:05:15;4.35;;;1.13;;
41635;SDS011;27623;51.966;4.602;2024-02-21T01:07:41;4.85;;;0.95;;
41635;SDS011;27623;51.966;4.602;2024-02-21T01:10:07;2.10;;;1.33;;
41635;SDS011;27623;51.966;4.602;2024-02-21T01:12:32;3.13;;;1.17;;
41635;SDS011;27623;51.966;4.602;2024-02-21T01:14:58;9.27;;;2.55;;
41635;SDS011;27623;51.966;4.602;2024-02-21T01:17:23;2.63;;;0.80;;
41635;SDS011;27623;51.966;4.602;2024-02-21T01:19:48;5.32;;;1.38;;
41635;SDS011;27623;51.966;4.602;2024-02-21T01:22:14;4.28;;;0.98;;
41635;SDS011;27623;51.966;4.602;2024-02-21T01:24:40;8.10;;;0.50;;
41635;SDS011;27623;51.966;4.602;2024-02-21T01:27:06;3.40;;;1.15;;
41635;SDS011;27623;51.966;4.602;2024-02-21T01:29:31;1.08;;;0.57;;
41635;SDS011;27623;51.966;4.602;2024-02-21T01:31:59;4.53;;;1.77;;
41635;SDS011;27623;51.966;4.602;2024-02-21T01:34:24;2.05;;;0.80;;
41635;SDS011;27623;51.966;4.602;2024-02-21T01:36:50;1.58;;;0.77;;
41635;SDS011;27623;51.966;4.602;2024-02-21T01:39:15;1.35;;;0.90;;
41635;SDS011;27623;51.966;4.602;2024-02-21T01:41:40;1.45;;;0.93;;
41635;SDS011;27623;51.966;4.602;2024-02-21T01:44:06;2.17;;;1.98;;
41635;SDS011;27623;51.966;4.602;2024-02-21T01:46:34;2.72;;;0.88;;
41635;SDS011;27623;51.966;4.602;2024-02-21T01:49:00;1.33;;;0.80;;
41635;SDS011;27623;51.966;4.602;2024-02-21T01:51:26;11.25;;;1.33;;
41635;SDS011;27623;51.966;4.602;2024-02-21T01:53:55;3.38;;;1.02;;
41635;SDS011;27623;51.966;4.602;2024-02-21T01:56:21;18.00;;;1.60;;
41635;SDS011;27623;51.966;4.602;2024-02-21T01:58:47;6.82;;;2.42;;
41635;SDS011;27623;51.966;4.602;2024-02-21T02:01:13;1.45;;;1.23;;
41635;SDS011;27623;51.966;4.602;2024-02-21T02:03:39;1.38;;;0.93;;
41635;SDS011;27623;51.966;4.602;2024-02-21T02:06:05;1.17;;;0.80;;
41635;SDS011;27623;51.966;4.602;2024-02-21T02:08:31;4.30;;;0.95;;
41635;SDS011;27623;51.966;4.602;2024-02-21T02:10:57;3.00;;;0.80;;
41635;SDS011;27623;51.966;4.602;2024-02-21T02:13:24;1.90;;;1.42;;
41635;SDS011;27623;51.966;4.602;2024-02-21T02:15:49;1.42;;;0.68;;
41635;SDS011;27623;51.966;4.602;2024-02-21T02:18:15;2.42;;;0.95;;
41635;SDS011;27623;51.966;4.602;2024-02-21T02:20:42;12.32;;;1.77;;
41635;SDS011;27623;51.966;4.602;2024-02-21T02:25:52;8.18;;;1.38;;
41635;SDS011;27623;51.966;4.602;2024-02-21T02:28:21;1.35;;;0.82;;
41635;SDS011;27623;51.966;4.602;2024-02-21T02:30:47;1.88;;;1.10;;
41635;SDS011;27623;51.966;4.602;2024-02-21T02:33:13;1.33;;;0.63;;
41635;SDS011;27623;51.966;4.602;2024-02-21T02:35:38;2.55;;;1.38;;
41635;SDS011;27623;51.966;4.602;2024-02-21T02:38:04;2.83;;;1.45;;
41635;SDS011;27623;51.966;4.602;2024-02-21T02:40:30;6.38;;;0.57;;
41635;SDS011;27623;51.966;4.602;2024-02-21T02:42:56;5.65;;;1.45;;
41635;SDS011;27623;51.966;4.602;2024-02-21T02:45:21;4.10;;;2.03;;
41635;SDS011;27623;51.966;4.602;2024-02-21T02:47:48;2.83;;;1.50;;
41635;SDS011;27623;51.966;4.602;2024-02-21T02:50:14;7.95;;;1.70;;
41635;SDS011;27623;51.966;4.602;2024-02-21T02:52:40;2.83;;;0.88;;
41635;SDS011;27623;51.966;4.602;2024-02-21T02:55:05;4.50;;;1.90;;
41635;SDS011;27623;51.966;4.602;2024-02-21T02:57:31;1.77;;;1.08;;
41635;SDS011;27623;51.966;4.602;2024-02-21T02:59:57;7.32;;;1.17;;
41635;SDS011;27623;51.966;4.602;2024-02-21T03:02:22;1.45;;;1.08;;
41635;SDS011;27623;51.966;4.602;2024-02-21T03:04:48;7.25;;;1.23;;
41635;SDS011;27623;51.966;4.602;2024-02-21T03:07:14;3.70;;;1.30;;
41635;SDS011;27623;51.966;4.602;2024-02-21T03:09:40;6.15;;;1.35;;
41635;SDS011;27623;51.966;4.602;2024-02-21T03:12:07;8.90;;;2.00;;
41635;SDS011;27623;51.966;4.602;2024-02-21T03:14:34;2.60;;;1.77;;
41635;SDS011;27623;51.966;4.602;2024-02-21T03:16:59;3.03;;;1.60;;
41635;SDS011;27623;51.966;4.602;2024-02-21T03:19:25;2.33;;;0.70;;
41635;SDS011;27623;51.966;4.602;2024-02-21T03:21:50;1.80;;;1.30;;
41635;SDS011;27623;51.966;4.602;2024-02-21T03:24:16;2.03;;;1.13;;
41635;SDS011;27623;51.966;4.602;2024-02-21T03:26:42;2.53;;;1.30;;
41635;SDS011;27623;51.966;4.602;2024-02-21T03:29:07;6.60;;;2.22;;
41635;SDS011;27623;51.966;4.602;2024-02-21T03:31:34;13.15;;;2.35;;
41635;SDS011;27623;51.966;4.602;2024-02-21T03:34:00;1.80;;;1.30;;
41635;SDS011;27623;51.966;4.602;2024-02-21T03:36:25;3.75;;;1.50;;
41635;SDS011;27623;51.966;4.602;2024-02-21T03:38:51;6.90;;;1.35;;
41635;SDS011;27623;51.966;4.602;2024-02-21T03:41:16;4.40;;;1.77;;
41635;SDS011;27623;51.966;4.602;2024-02-21T03:43:41;1.35;;;0.75;;
41635;SDS011;27623;51.966;4.602;2024-02-21T03:46:07;2.55;;;1.40;;
41635;SDS011;27623;51.966;4.602;2024-02-21T03:48:32;1.80;;;1.05;;
41635;SDS011;27623;51.966;4.602;2024-02-21T03:50:58;9.05;;;1.58;;
41635;SDS011;27623;51.966;4.602;2024-02-21T03:53:26;3.42;;;1.20;;
41635;SDS011;27623;51.966;4.602;2024-02-21T03:55:54;4.55;;;1.45;;
41635;SDS011;27623;51.966;4.602;2024-02-21T03:58:20;4.10;;;2.05;;
41635;SDS011;27623;51.966;4.602;2024-02-21T04:00:45;4.93;;;1.45;;
41635;SDS011;27623;51.966;4.602;2024-02-21T04:03:11;2.42;;;1.27;;
41635;SDS011;27623;51.966;4.602;2024-02-21T04:05:36;4.07;;;1.60;;
41635;SDS011;27623;51.966;4.602;2024-02-21T04:08:05;5.38;;;1.95;;
41635;SDS011;27623;51.966;4.602;2024-02-21T04:10:33;4.13;;;1.60;;
41635;SDS011;27623;51.966;4.602;2024-02-21T04:12:59;8.85;;;1.58;;
41635;SDS011;27623;51.966;4.602;2024-02-21T04:15:24;3.00;;;1.48;;
41635;SDS011;27623;51.966;4.602;2024-02-21T04:17:49;2.25;;;1.23;;
41635;SDS011;27623;51.966;4.602;2024-02-21T04:20:16;2.53;;;1.08;;
41635;SDS011;27623;51.966;4.602;2024-02-21T04:22:44;2.17;;;1.05;;
41635;SDS011;27623;51.966;4.602;2024-02-21T04:25:12;2.55;;;1.00;;
41635;SDS011;27623;51.966;4.602;2024-02-21T04:27:38;1.52;;;0.80;;
41635;SDS011;27623;51.966;4.602;2024-02-21T04:30:04;1.88;;;1.17;;
41635;SDS011;27623;51.966;4.602;2024-02-21T04:32:30;1.73;;;1.08;;
41635;SDS011;27623;51.966;4.602;2024-02-21T04:34:55;8.57;;;1.60;;
41635;SDS011;27623;51.966;4.602;2024-02-21T04:37:20;2.28;;;1.40;;
41635;SDS011;27623;51.966;4.602;2024-02-21T04:39:46;1.40;;;1.02;;
41635;SDS011;27623;51.966;4.602;2024-02-21T04:42:13;2.95;;;1.08;;
41635;SDS011;27623;51.966;4.602;2024-02-21T04:44:38;4.57;;;1.75;;
41635;SDS011;27623;51.966;4.602;2024-02-21T04:47:03;4.57;;;1.98;;
41635;SDS011;27623;51.966;4.602;2024-02-21T04:49:29;6.15;;;1.13;;
41635;SDS011;27623;51.966;4.602;2024-02-21T04:51:57;2.28;;;1.00;;
41635;SDS011;27623;51.966;4.602;2024-02-21T04:54:22;4.88;;;1.85;;
41635;SDS011;27623;51.966;4.602;2024-02-21T04:56:48;5.38;;;1.30;;
41635;SDS011;27623;51.966;4.602;2024-02-21T04:59:16;3.10;;;1.48;;
41635;SDS011;27623;51.966;4.602;2024-02-21T05:01:41;4.72;;;1.63;;
41635;SDS011;27623;51.966;4.602;2024-02-21T05:04:06;2.45;;;1.15;;
41635;SDS011;27623;51.966;4.602;2024-02-21T05:06:32;4.25;;;2.08;;
41635;SDS011;27623;51.966;4.602;2024-02-21T05:09:02;3.72;;;2.40;;
41635;SDS011;27623;51.966;4.602;2024-02-21T05:11:28;11.43;;;1.83;;
41635;SDS011;27623;51.966;4.602;2024-02-21T05:13:53;4.63;;;2.75;;
41635;SDS011;27623;51.966;4.602;2024-02-21T05:16:18;2.55;;;1.40;;
41635;SDS011;27623;51.966;4.602;2024-02-21T05:18:44;2.83;;;1.30;;
41635;SDS011;27623;51.966;4.602;2024-02-21T05:21:09;3.35;;;2.20;;
41635;SDS011;27623;51.966;4.602;2024-02-21T05:23:37;3.60;;;1.27;;
41635;SDS011;27623;51.966;4.602;2024-02-21T05:26:04;3.17;;;1.65;;
41635;SDS011;27623;51.966;4.602;2024-02-21T05:28:30;5.22;;;1.80;;
41635;SDS011;27623;51.966;4.602;2024-02-21T05:30:55;3.80;;;2.03;;
41635;SDS011;27623;51.966;4.602;2024-02-21T05:33:21;4.20;;;1.80;;
41635;SDS011;27623;51.966;4.602;2024-02-21T05:35:47;5.10;;;1.75;;
41635;SDS011;27623;51.966;4.602;2024-02-21T05:38:15;4.35;;;2.70;;
41635;SDS011;27623;51.966;4.602;2024-02-21T05:40:41;13.27;;;3.10;;
41635;SDS011;27623;51.966;4.602;2024-02-21T05:43:09;4.93;;;1.88;;
41635;SDS011;27623;51.966;4.602;2024-02-21T05:45:35;4.85;;;2.47;;
41635;SDS011;27623;51.966;4.602;2024-02-21T05:48:01;11.38;;;3.67;;
41635;SDS011;27623;51.966;4.602;2024-02-21T05:50:27;12.35;;;3.30;;
41635;SDS011;27623;51.966;4.602;2024-02-21T05:52:56;6.07;;;2.88;;
41635;SDS011;27623;51.966;4.602;2024-02-21T05:55:21;10.05;;;3.25;;
41635;SDS011;27623;51.966;4.602;2024-02-21T05:57:47;6.30;;;1.08;;
41635;SDS011;27623;51.966;4.602;2024-02-21T06:00:13;14.27;;;3.53;;
41635;SDS011;27623;51.966;4.602;2024-02-21T06:02:42;6.30;;;2.78;;
41635;SDS011;27623;51.966;4.602;2024-02-21T06:05:07;4.80;;;1.80;;
41635;SDS011;27623;51.966;4.602;2024-02-21T06:07:34;10.00;;;3.03;;
41635;SDS011;27623;51.966;4.602;2024-02-21T06:10:01;6.10;;;2.63;;
41635;SDS011;27623;51.966;4.602;2024-02-21T06:12:27;5.15;;;1.98;;
41635;SDS011;27623;51.966;4.602;2024-02-21T06:14:52;3.30;;;1.90;;
41635;SDS011;27623;51.966;4.602;2024-02-21T06:17:18;3.45;;;1.90;;
41635;SDS011;27623;51.966;4.602;2024-02-21T06:19:43;5.82;;;2.63;;
41635;SDS011;27623;51.966;4.602;2024-02-21T06:22:09;10.85;;;3.30;;
41635;SDS011;27623;51.966;4.602;2024-02-21T06:24:35;7.57;;;2.30;;
41635;SDS011;27623;51.966;4.602;2024-02-21T06:27:01;9.50;;;2.95;;
41635;SDS011;27623;51.966;4.602;2024-02-21T06:29:27;3.42;;;2.20;;
41635;SDS011;27623;51.966;4.602;2024-02-21T06:31:53;3.88;;;2.25;;
41635;SDS011;27623;51.966;4.602;2024-02-21T06:34:18;6.53;;;2.70;;
41635;SDS011;27623;51.966;4.602;2024-02-21T06:36:44;5.80;;;2.20;;
41635;SDS011;27623;51.966;4.602;2024-02-21T06:39:10;4.20;;;2.15;;
41635;SDS011;27623;51.966;4.602;2024-02-21T06:41:36;9.57;;;2.67;;
41635;SDS011;27623;51.966;4.602;2024-02-21T06:44:02;7.88;;;2.80;;
41635;SDS011;27623;51.966;4.602;2024-02-21T06:46:28;8.05;;;2.55;;
41635;SDS011;27623;51.966;4.602;2024-02-21T06:48:54;6.25;;;2.40;;
41635;SDS011;27623;51.966;4.602;2024-02-21T06:51:22;6.05;;;2.15;;
41635;SDS011;27623;51.966;4.602;2024-02-21T06:53:48;9.00;;;3.22;;
41635;SDS011;27623;51.966;4.602;2024-02-21T06:56:13;4.20;;;2.45;;
41635;SDS011;27623;51.966;4.602;2024-02-21T06:58:39;4.22;;;1.92;;
41635;SDS011;27623;51.966;4.602;2024-02-21T07:01:04;10.77;;;2.58;;
41635;SDS011;27623;51.966;4.602;2024-02-21T07:03:29;11.32;;;3.92;;
41635;SDS011;27623;51.966;4.602;2024-02-21T07:05:55;5.80;;;2.85;;
41635;SDS011;27623;51.966;4.602;2024-02-21T07:08:20;7.35;;;2.15;;
41635;SDS011;27623;51.966;4.602;2024-02-21T07:10:46;7.68;;;2.75;;
41635;SDS011;27623;51.966;4.602;2024-02-21T07:13:12;7.18;;;3.17;;
41635;SDS011;27623;51.966;4.602;2024-02-21T07:15:38;5.22;;;2.83;;
41635;SDS011;27623;51.966;4.602;2024-02-21T07:18:03;15.02;;;3.60;;
41635;SDS011;27623;51.966;4.602;2024-02-21T07:20:29;3.90;;;2.28;;
41635;SDS011;27623;51.966;4.602;2024-02-21T07:22:55;3.00;;;1.95;;
41635;SDS011;27623;51.966;4.602;2024-02-21T07:25:20;8.80;;;4.07;;
41635;SDS011;27623;51.966;4.602;2024-02-21T07:27:45;24.77;;;3.10;;
41635;SDS011;27623;51.966;4.602;2024-02-21T07:30:11;3.53;;;2.20;;
41635;SDS011;27623;51.966;4.602;2024-02-21T07:32:36;12.50;;;3.80;;
41635;SDS011;27623;51.966;4.602;2024-02-21T07:35:02;9.27;;;2.72;;
41635;SDS011;27623;51.966;4.602;2024-02-21T07:37:27;8.43;;;2.80;;
41635;SDS011;27623;51.966;4.602;2024-02-21T07:39:53;7.78;;;2.95;;
41635;SDS011;27623;51.966;4.602;2024-02-21T07:42:18;5.55;;;3.42;;
41635;SDS011;27623;51.966;4.602;2024-02-21T07:44:43;9.55;;;2.75;;
41635;SDS011;27623;51.966;4.602;2024-02-21T07:47:09;9.40;;;4.28;;
41635;SDS011;27623;51.966;4.602;2024-02-21T07:49:55;7.18;;;3.05;;
41635;SDS011;27623;51.966;4.602;2024-02-21T07:52:20;17.15;;;3.42;;
41635;SDS011;27623;51.966;4.602;2024-02-21T07:54:45;5.10;;;2.60;;
41635;SDS011;27623;51.966;4.602;2024-02-21T07:57:10;3.70;;;2.05;;
41635;SDS011;27623;51.966;4.602;2024-02-21T07:59:36;5.43;;;3.55;;
41635;SDS011;27623;51.966;4.602;2024-02-21T08:02:01;6.80;;;3.03;;
41635;SDS011;27623;51.966;4.602;2024-02-21T08:04:27;4.07;;;2.65;;
41635;SDS011;27623;51.966;4.602;2024-02-21T08:06:55;6.78;;;3.33;;
41635;SDS011;27623;51.966;4.602;2024-02-21T08:09:24;9.30;;;3.10;;
41635;SDS011;27623;51.966;4.602;2024-02-21T08:11:49;22.02;;;3.85;;
41635;SDS011;27623;51.966;4.602;2024-02-21T08:14:14;13.25;;;4.15;;
41635;SDS011;27623;51.966;4.602;2024-02-21T08:16:41;8.20;;;3.30;;
41635;SDS011;27623;51.966;4.602;2024-02-21T08:19:07;18.30;;;4.55;;
41635;SDS011;27623;51.966;4.602;2024-02-21T08:21:32;8.13;;;2.30;;
41635;SDS011;27623;51.966;4.602;2024-02-21T08:23:58;8.88;;;3.53;;
41635;SDS011;27623;51.966;4.602;2024-02-21T08:26:23;10.75;;;3.40;;
41635;SDS011;27623;51.966;4.602;2024-02-21T08:28:49;3.45;;;1.33;;
41635;SDS011;27623;51.966;4.602;2024-02-21T08:31:19;8.50;;;3.13;;
41635;SDS011;27623;51.966;4.602;2024-02-21T08:33:45;6.82;;;3.25;;
41635;SDS011;27623;51.966;4.602;2024-02-21T08:36:16;7.53;;;3.58;;
41635;SDS011;27623;51.966;4.602;2024-02-21T08:38:43;10.55;;;3.60;;
41635;SDS011;27623;51.966;4.602;2024-02-21T08:41:08;5.13;;;2.90;;
41635;SDS011;27623;51.966;4.602;2024-02-21T08:43:33;5.80;;;3.25;;
41635;SDS011;27623;51.966;4.602;2024-02-21T08:46:00;4.35;;;2.67;;
41635;SDS011;27623;51.966;4.602;2024-02-21T08:48:26;6.50;;;2.97;;
41635;SDS011;27623;51.966;4.602;2024-02-21T08:50:51;5.82;;;3.40;;
41635;SDS011;27623;51.966;4.602;2024-02-21T08:53:17;11.00;;;3.53;;
41635;SDS011;27623;51.966;4.602;2024-02-21T08:55:42;9.48;;;3.20;;
41635;SDS011;27623;51.966;4.602;2024-02-21T08:58:09;4.82;;;2.70;;
41635;SDS011;27623;51.966;4.602;2024-02-21T09:00:37;6.45;;;2.67;;
41635;SDS011;27623;51.966;4.602;2024-02-21T09:03:02;7.18;;;4.25;;
41635;SDS011;27623;51.966;4.602;2024-02-21T09:05:28;6.10;;;2.75;;
41635;SDS011;27623;51.966;4.602;2024-02-21T09:07:54;10.57;;;3.30;;
41635;SDS011;27623;51.966;4.602;2024-02-21T09:10:20;3.80;;;2.05;;
41635;SDS011;27623;51.966;4.602;2024-02-21T09:12:46;8.43;;;2.10;;
41635;SDS011;27623;51.966;4.602;2024-02-21T09:15:12;6.47;;;2.92;;
41635;SDS011;27623;51.966;4.602;2024-02-21T09:17:38;8.23;;;3.42;;
41635;SDS011;27623;51.966;4.602;2024-02-21T09:20:04;5.82;;;2.72;;
41635;SDS011;27623;51.966;4.602;2024-02-21T09:22:31;8.07;;;2.65;;
41635;SDS011;27623;51.966;4.602;2024-02-21T09:24:59;7.70;;;1.95;;
41635;SDS011;27623;51.966;4.602;2024-02-21T09:27:25;6.35;;;3.00;;
41635;SDS011;27623;51.966;4.602;2024-02-21T09:29:50;5.03;;;2.60;;
41635;SDS011;27623;51.966;4.602;2024-02-21T09:32:16;7.60;;;3.38;;
41635;SDS011;27623;51.966;4.602;2024-02-21T09:34:41;9.88;;;3.03;;
41635;SDS011;27623;51.966;4.602;2024-02-21T09:37:06;4.18;;;2.17;;
41635;SDS011;27623;51.966;4.602;2024-02-21T09:39:35;3.03;;;1.85;;
41635;SDS011;27623;51.966;4.602;2024-02-21T09:42:03;4.63;;;2.35;;
41635;SDS011;27623;51.966;4.602;2024-02-21T09:44:38;3.70;;;2.15;;
41635;SDS011;27623;51.966;4.602;2024-02-21T09:47:12;6.28;;;3.17;;
41635;SDS011;27623;51.966;4.602;2024-02-21T09:49:44;5.93;;;3.72;;
41635;SDS011;27623;51.966;4.602;2024-02-21T09:52:10;7.20;;;3.15;;
41635;SDS011;27623;51.966;4.602;2024-02-21T09:54:39;12.15;;;4.45;;
41635;SDS011;27623;51.966;4.602;2024-02-21T09:57:07;3.17;;;2.13;;
41635;SDS011;27623;51.966;4.602;2024-02-21T09:59:33;5.85;;;2.50;;
41635;SDS011;27623;51.966;4.602;2024-02-21T10:02:01;8.50;;;2.75;;
41635;SDS011;27623;51.966;4.602;2024-02-21T10:04:27;10.55;;;2.95;;
41635;SDS011;27623;51.966;4.602;2024-02-21T10:06:55;5.32;;;2.78;;
41635;SDS011;27623;51.966;4.602;2024-02-21T10:09:25;6.70;;;2.95;;
41635;SDS011;27623;51.966;4.602;2024-02-21T10:12:07;6.30;;;3.08;;
41635;SDS011;27623;51.966;4.602;2024-02-21T10:14:34;3.90;;;1.88;;
41635;SDS011;27623;51.966;4.602;2024-02-21T10:17:00;7.15;;;2.33;;
41635;SDS011;27623;51.966;4.602;2024-02-21T10:19:25;6.18;;;1.80;;
41635;SDS011;27623;51.966;4.602;2024-02-21T10:24:30;9.27;;;2.97;;
41635;SDS011;27623;51.966;4.602;2024-02-21T10:27:02;5.63;;;3.30;;
41635;SDS011;27623;51.966;4.602;2024-02-21T10:29:32;12.38;;;2.92;;
41635;SDS011;27623;51.966;4.602;2024-02-21T10:32:10;8.63;;;2.97;;
41635;SDS011;27623;51.966;4.602;2024-02-21T10:34:37;11.32;;;2.45;;
41635;SDS011;27623;51.966;4.602;2024-02-21T10:37:03;4.80;;;1.70;;
41635;SDS011;27623;51.966;4.602;2024-02-21T10:39:33;6.88;;;2.22;;
41635;SDS011;27623;51.966;4.602;2024-02-21T10:42:00;7.35;;;1.85;;
41635;SDS011;27623;51.966;4.602;2024-02-21T10:44:33;3.58;;;2.10;;
41635;SDS011;27623;51.966;4.602;2024-02-21T10:47:03;4.22;;;2.35;;
41635;SDS011;27623;51.966;4.602;2024-02-21T10:49:33;5.97;;;2.45;;
41635;SDS011;27623;51.966;4.602;2024-02-21T10:55:04;5.38;;;2.67;;
41635;SDS011;27623;51.966;4.602;2024-02-21T10:57:38;1.67;;;1.20;;
41635;SDS011;27623;51.966;4.602;2024-02-21T11:00:04;2.72;;;2.15;;
41635;SDS011;27623;51.966;4.602;2024-02-21T11:02:35;4.57;;;2.15;;
41635;SDS011;27623;51.966;4.602;2024-02-21T11:05:01;3.65;;;1.67;;
41635;SDS011;27623;51.966;4.602;2024-02-21T11:07:29;4.35;;;1.83;;
41635;SDS011;27623;51.966;4.602;2024-02-21T11:09:57;6.30;;;3.40;;
41635;SDS011;27623;51.966;4.602;2024-02-21T11:12:24;4.35;;;1.70;;
41635;SDS011;27623;51.966;4.602;2024-02-21T11:14:51;9.85;;;2.58;;
41635;SDS011;27623;51.966;4.602;2024-02-21T11:17:17;6.50;;;1.98;;
41635;SDS011;27623;51.966;4.602;2024-02-21T11:19:43;3.58;;;2.30;;
41635;SDS011;27623;51.966;4.602;2024-02-21T11:22:18;5.70;;;2.42;;
41635;SDS011;27623;51.966;4.602;2024-02-21T11:24:45;3.55;;;2.17;;
41635;SDS011;27623;51.966;4.602;2024-02-21T11:27:18;4.18;;;2.47;;
41635;SDS011;27623;51.966;4.602;2024-02-21T11:29:49;5.47;;;2.78;;
41635;SDS011;27623;51.966;4.602;2024-02-21T11:32:19;5.95;;;2.55;;
41635;SDS011;27623;51.966;4.602;2024-02-21T11:34:55;4.65;;;2.28;;
41635;SDS011;27623;51.966;4.602;2024-02-21T11:37:28;3.72;;;2.00;;
41635;SDS011;27623;51.966;4.602;2024-02-21T11:39:55;2.28;;;1.55;;
41635;SDS011;27623;51.966;4.602;2024-02-21T11:42:21;6.60;;;2.78;;
41635;SDS011;27623;51.966;4.602;2024-02-21T11:44:47;3.33;;;1.92;;
41635;SDS011;27623;51.966;4.602;2024-02-21T11:47:15;9.07;;;2.38;;
41635;SDS011;27623;51.966;4.602;2024-02-21T11:49:45;12.80;;;3.30;;
41635;SDS011;27623;51.966;4.602;2024-02-21T11:52:14;2.45;;;1.63;;
41635;SDS011;27623;51.966;4.602;2024-02-21T11:54:44;3.25;;;1.77;;
41635;SDS011;27623;51.966;4.602;2024-02-21T11:57:09;7.43;;;2.50;;
41635;SDS011;27623;51.966;4.602;2024-02-21T11:59:36;5.88;;;2.67;;
41635;SDS011;27623;51.966;4.602;2024-02-21T12:02:03;1.90;;;1.27;;
41635;SDS011;27623;51.966;4.602;2024-02-21T12:04:29;4.72;;;2.08;;
41635;SDS011;27623;51.966;4.602;2024-02-21T12:06:58;5.25;;;2.20;;
41635;SDS011;27623;51.966;4.602;2024-02-21T12:09:24;2.40;;;1.55;;
41635;SDS011;27623;51.966;4.602;2024-02-21T12:11:57;8.77;;;2.17;;
41635;SDS011;27623;51.966;4.602;2024-02-21T12:14:24;2.85;;;1.77;;
41635;SDS011;27623;51.966;4.602;2024-02-21T12:16:52;3.60;;;2.20;;
41635;SDS011;27623;51.966;4.602;2024-02-21T12:19:32;5.75;;;2.08;;
41635;SDS011;27623;51.966;4.602;2024-02-21T12:22:00;2.40;;;1.38;;
41635;SDS011;27623;51.966;4.602;2024-02-21T12:24:27;4.68;;;2.47;;
41635;SDS011;27623;51.966;4.602;2024-02-21T12:26:54;9.75;;;1.85;;
41635;SDS011;27623;51.966;4.602;2024-02-21T12:29:21;7.28;;;2.20;;
41635;SDS011;27623;51.966;4.602;2024-02-21T12:31:49;3.92;;;2.03;;
41635;SDS011;27623;51.966;4.602;2024-02-21T12:34:15;1.95;;;1.50;;
41635;SDS011;27623;51.966;4.602;2024-02-21T12:36:41;5.05;;;2.78;;
41635;SDS011;27623;51.966;4.602;2024-02-21T12:39:13;2.47;;;1.63;;
41635;SDS011;27623;51.966;4.602;2024-02-21T12:41:39;6.13;;;2.40;;
41635;SDS011;27623;51.966;4.602;2024-02-21T12:44:05;9.05;;;1.58;;
41635;SDS011;27623;51.966;4.602;2024-02-21T12:46:36;2.70;;;1.27;;
41635;SDS011;27623;51.966;4.602;2024-02-21T12:49:02;6.05;;;1.63;;
41635;SDS011;27623;51.966;4.602;2024-02-21T12:51:28;5.60;;;2.03;;
41635;SDS011;27623;51.966;4.602;2024-02-21T12:53:54;2.83;;;2.10;;
41635;SDS011;27623;51.966;4.602;2024-02-21T12:56:20;2.05;;;1.42;;
41635;SDS011;27623;51.966;4.602;2024-02-21T12:58:45;3.92;;;1.40;;
41635;SDS011;27623;51.966;4.602;2024-02-21T13:01:11;14.23;;;1.90;;
41635;SDS011;27623;51.966;4.602;2024-02-21T13:03:37;2.08;;;1.15;;
41635;SDS011;27623;51.966;4.602;2024-02-21T13:06:03;2.15;;;1.40;;
41635;SDS011;27623;51.966;4.602;2024-02-21T13:08:29;3.30;;;1.33;;
41635;SDS011;27623;51.966;4.602;2024-02-21T13:10:54;2.03;;;1.65;;
41635;SDS011;27623;51.966;4.602;2024-02-21T13:13:19;3.70;;;1.75;;
41635;SDS011;27623;51.966;4.602;2024-02-21T13:15:45;10.73;;;2.53;;
41635;SDS011;27623;51.966;4.602;2024-02-21T13:18:10;2.75;;;1.50;;
41635;SDS011;27623;51.966;4.602;2024-02-21T13:20:36;4.60;;;2.08;;
41635;SDS011;27623;51.966;4.602;2024-02-21T13:23:02;2.88;;;1.35;;
41635;SDS011;27623;51.966;4.602;2024-02-21T13:25:27;5.20;;;1.77;;
41635;SDS011;27623;51.966;4.602;2024-02-21T13:27:54;2.75;;;1.15;;
41635;SDS011;27623;51.966;4.602;2024-02-21T13:30:20;6.05;;;1.23;;
41635;SDS011;27623;51.966;4.602;2024-02-21T13:32:45;3.75;;;1.35;;
41635;SDS011;27623;51.966;4.602;2024-02-21T13:35:13;29.35;;;2.25;;
41635;SDS011;27623;51.966;4.602;2024-02-21T13:37:40;4.80;;;1.42;;
41635;SDS011;27623;51.966;4.602;2024-02-21T13:40:06;2.67;;;1.48;;
41635;SDS011;27623;51.966;4.602;2024-02-21T13:42:34;1.20;;;1.10;;
41635;SDS011;27623;51.966;4.602;2024-02-21T13:44:59;3.90;;;1.48;;
41635;SDS011;27623;51.966;4.602;2024-02-21T13:47:26;10.10;;;1.20;;
41635;SDS011;27623;51.966;4.602;2024-02-21T13:49:51;8.88;;;1.17;;
41635;SDS011;27623;51.966;4.602;2024-02-21T13:52:17;2.53;;;1.75;;
41635;SDS011;27623;51.966;4.602;2024-02-21T13:54:45;6.35;;;1.60;;
41635;SDS011;27623;51.966;4.602;2024-02-21T13:57:10;2.00;;;1.25;;
41635;SDS011;27623;51.966;4.602;2024-02-21T13:59:35;3.60;;;1.60;;
41635;SDS011;27623;51.966;4.602;2024-02-21T14:02:01;5.93;;;1.58;;
41635;SDS011;27623;51.966;4.602;2024-02-21T14:04:26;2.45;;;1.73;;
41635;SDS011;27623;51.966;4.602;2024-02-21T14:06:52;3.17;;;2.10;;
41635;SDS011;27623;51.966;4.602;2024-02-21T14:09:18;5.78;;;2.17;;
41635;SDS011;27623;51.966;4.602;2024-02-21T14:11:44;3.10;;;1.40;;
41635;SDS011;27623;51.966;4.602;2024-02-21T14:14:10;1.30;;;1.00;;
41635;SDS011;27623;51.966;4.602;2024-02-21T14:16:35;8.27;;;1.55;;
41635;SDS011;27623;51.966;4.602;2024-02-21T14:19:01;3.85;;;1.90;;
41635;SDS011;27623;51.966;4.602;2024-02-21T14:21:27;2.15;;;1.38;;
41635;SDS011;27623;51.966;4.602;2024-02-21T14:23:53;3.95;;;2.60;;
41635;SDS011;27623;51.966;4.602;2024-02-21T14:26:19;4.85;;;2.00;;
41635;SDS011;27623;51.966;4.602;2024-02-21T14:28:44;4.18;;;1.88;;
41635;SDS011;27623;51.966;4.602;2024-02-21T14:31:11;3.67;;;1.92;;
41635;SDS011;27623;51.966;4.602;2024-02-21T14:33:36;2.88;;;1.83;;
41635;SDS011;27623;51.966;4.602;2024-02-21T14:36:02;3.90;;;1.83;;
41635;SDS011;27623;51.966;4.602;2024-02-21T14:38:28;2.90;;;1.77;;
41635;SDS011;27623;51.966;4.602;2024-02-21T14:40:53;5.15;;;1.92;;
41635;SDS011;27623;51.966;4.602;2024-02-21T14:43:19;5.72;;;1.60;;
41635;SDS011;27623;51.966;4.602;2024-02-21T14:45:46;2.63;;;1.42;;
41635;SDS011;27623;51.966;4.602;2024-02-21T14:48:14;2.50;;;1.10;;
41635;SDS011;27623;51.966;4.602;2024-02-21T14:50:40;2.45;;;1.50;;